Time;durP1;ratioP1;P1;durP2;ratioP2;P2;SDS_P1;SDS_P2;PMS_P1;PMS_P2;Temp;Humidity;BMP_temperature;BMP_pressure;BME280_temperature;BME280_humidity;BME280_pressure;Samples;Min_cycle;Max_cycle;Signal;HPM_P1;HPM_P2
2023/05/29 00:00:56;;;;;;;10.90;4.50;;;;;;;8.26;64.89;99784.02;436735;1256;140517;-64
2023/05/29 00:11:02;;;;;;;9.50;4.70;;;;;;;8.10;65.27;99779.73;436348;1255;141060;-64
2023/05/29 00:21:09;;;;;;;9.30;5.00;;;;;;;7.96;65.62;99776.83;436362;1256;140645;-64
2023/05/29 00:31:14;;;;;;;7.60;4.50;;;;;;;7.80;66.09;99768.35;436376;1256;139960;-63
2023/05/29 00:41:20;;;;;;;5.10;4.00;;;;;;;7.67;66.47;99768.29;436445;1251;139351;-64
2023/05/29 00:51:27;;;;;;;10.10;4.00;;;;;;;7.54;67.07;99763.15;436461;1260;139165;-65
2023/05/29 01:01:33;;;;;;;6.10;3.70;;;;;;;7.41;67.07;99755.44;436506;1256;139658;-64
2023/05/29 01:11:47;;;;;;;7.90;3.90;;;;;;;7.27;67.67;99756.06;436537;1253;139985;-63
2023/05/29 01:22:06;;;;;;;8.50;3.50;;;;;;;7.18;68.28;99758.77;453240;1251;139440;-63
2023/05/29 01:32:12;;;;;;;3.80;2.80;;;;;;;7.10;68.29;99767.49;440511;1253;139627;-63
2023/05/29 01:42:18;;;;;;;7.70;4.20;;;;;;;7.03;68.40;99759.98;436568;1254;139952;-63
2023/05/29 01:52:24;;;;;;;7.50;3.40;;;;;;;6.93;68.87;99756.65;436684;1253;139588;-63
2023/05/29 02:02:30;;;;;;;6.30;3.50;;;;;;;6.80;69.33;99751.98;436750;1254;140327;-64
2023/05/29 02:12:35;;;;;;;5.40;3.60;;;;;;;6.70;69.73;99750.19;436726;1254;138673;-63
2023/05/29 02:22:41;;;;;;;4.60;3.00;;;;;;;6.62;69.76;99751.40;437146;1251;139131;-64
2023/05/29 02:32:47;;;;;;;8.30;4.30;;;;;;;6.56;70.17;99750.79;436917;1253;139624;-63
2023/05/29 02:42:53;;;;;;;8.90;4.10;;;;;;;6.57;70.48;99743.48;437627;1251;139927;-63
2023/05/29 02:52:59;;;;;;;13.00;4.40;;;;;;;6.66;70.64;99734.52;437168;1253;139383;-64
2023/05/29 03:03:05;;;;;;;7.60;4.20;;;;;;;6.94;70.56;99735.17;437161;1250;140395;-65
2023/05/29 03:13:11;;;;;;;4.80;3.60;;;;;;;8.48;69.97;99733.45;436059;1254;139618;-64
2023/05/29 03:23:17;;;;;;;5.30;3.20;;;;;;;10.89;66.41;99741.41;436611;1251;140389;-64
2023/05/29 03:33:23;;;;;;;6.00;3.30;;;;;;;10.77;63.33;99747.95;436972;1251;138923;-64
2023/05/29 03:43:29;;;;;;;9.80;3.90;;;;;;;10.29;63.70;99754.34;436573;1251;141616;-64
2023/05/29 03:53:35;;;;;;;27.30;5.10;;;;;;;10.40;63.84;99762.80;437110;1255;139732;-63
2023/05/29 04:03:42;;;;;;;16.20;5.10;;;;;;;11.61;64.35;99770.36;436644;1251;139334;-63
2023/05/29 04:13:48;;;;;;;11.90;4.40;;;;;;;17.65;59.09;99761.02;436544;1251;140382;-64
2023/05/29 04:23:54;;;;;;;31.60;8.40;;;;;;;23.20;50.39;99754.70;436933;1254;139233;-64
2023/05/29 04:34:00;;;;;;;17.90;5.80;;;;;;;27.43;43.26;99745.98;436644;1254;138590;-65
2023/05/29 04:44:07;;;;;;;37.40;7.80;;;;;;;30.95;37.15;99750.05;437497;1250;139970;-65
2023/05/29 04:54:13;;;;;;;30.70;6.90;;;;;;;33.80;32.32;99748.10;436952;1251;139011;-64
2023/05/29 05:04:20;;;;;;;44.80;7.40;;;;;;;36.23;28.56;99734.77;436817;1251;139067;-65
2023/05/29 05:14:26;;;;;;;11.40;4.20;;;;;;;38.50;25.88;99734.02;436774;1251;140165;-65
2023/05/29 05:24:35;;;;;;;6.80;3.50;;;;;;;40.56;23.31;99727.16;436326;1254;139221;-65
2023/05/29 05:34:41;;;;;;;17.20;4.10;;;;;;;42.58;21.02;99737.63;436104;1251;138997;-64
2023/05/29 05:44:47;;;;;;;12.40;4.20;;;;;;;44.52;19.21;99738.96;435908;1251;138986;-65
2023/05/29 05:54:53;;;;;;;8.30;3.20;;;;;;;46.21;17.29;99734.30;435893;1251;139379;-66
2023/05/29 06:04:59;;;;;;;8.10;3.40;;;;;;;47.33;15.96;99737.83;436089;1254;138580;-64
2023/05/29 06:15:07;;;;;;;4.70;2.00;;;;;;;48.87;15.00;99740.17;435958;1254;138406;-64
2023/05/29 06:25:12;;;;;;;2.70;1.70;;;;;;;50.38;13.88;99739.36;435936;1251;138983;-66
2023/05/29 06:35:18;;;;;;;5.50;3.10;;;;;;;51.28;13.05;99740.90;436207;1251;140018;-65
2023/05/29 06:45:24;;;;;;;5.60;2.20;;;;;;;52.29;12.31;99742.29;436465;1254;139080;-65
2023/05/29 06:55:29;;;;;;;4.40;2.60;;;;;;;53.23;11.69;99746.50;436084;1251;138843;-64
2023/05/29 07:05:34;;;;;;;;;;;;;;;51.30;11.34;99743.41;436466;1251;139821;-65
2023/05/29 07:15:40;;;;;;;6.20;2.80;;;;;;;50.93;11.38;99738.95;436660;1251;125343;-64
2023/05/29 07:25:46;;;;;;;2.30;2.20;;;;;;;50.68;11.14;99751.83;436408;1253;164549;-64
2023/05/29 07:35:52;;;;;;;3.20;2.90;;;;;;;51.54;10.82;99753.44;436674;1250;138644;-65
2023/05/29 07:45:58;;;;;;;6.30;2.40;;;;;;;50.08;10.71;99753.73;436357;1253;139083;-65
2023/05/29 07:56:04;;;;;;;5.20;1.70;;;;;;;48.20;11.20;99753.38;436617;1253;138265;-65
2023/05/29 08:06:10;;;;;;;4.30;1.60;;;;;;;40.62;13.34;99755.74;436934;1253;138875;-65
2023/05/29 08:16:16;;;;;;;3.80;1.50;;;;;;;34.85;15.63;99763.58;436337;1251;138894;-65
2023/05/29 08:26:22;;;;;;;6.60;2.20;;;;;;;31.42;17.97;99771.32;436421;1251;138812;-65
2023/05/29 08:36:28;;;;;;;2.90;1.30;;;;;;;29.76;19.34;99768.89;436501;1251;138453;-64
2023/05/29 08:46:35;;;;;;;3.40;1.50;;;;;;;28.70;20.47;99763.96;436317;1253;138376;-63
2023/05/29 08:56:40;;;;;;;3.50;1.60;;;;;;;27.65;21.47;99772.42;436298;1251;139345;-63
2023/05/29 09:06:47;;;;;;;4.60;1.80;;;;;;;26.93;22.44;99775.09;436323;1251;138989;-64
2023/05/29 09:16:52;;;;;;;3.00;1.40;;;;;;;26.50;23.05;99767.93;436332;1249;139318;-64
2023/05/29 09:26:59;;;;;;;2.90;1.50;;;;;;;26.23;23.51;99761.02;436176;1251;138982;-65
2023/05/29 09:37:08;;;;;;;3.10;1.60;;;;;;;25.70;24.05;99760.66;436666;1253;140768;-64
2023/05/29 09:47:17;;;;;;;6.00;1.70;;;;;;;25.62;24.55;99760.77;436714;1251;140091;-62
2023/05/29 09:57:26;;;;;;;2.50;1.50;;;;;;;25.45;24.65;99761.90;436181;1251;139810;-63
2023/05/29 10:07:36;;;;;;;4.40;2.30;;;;;;;25.11;25.10;99761.14;436311;1253;138798;-64
2023/05/29 10:17:50;;;;;;;4.40;1.50;;;;;;;24.49;25.64;99756.41;436239;1251;139222;-63
2023/05/29 10:27:59;;;;;;;3.60;1.70;;;;;;;23.87;26.08;99752.09;436265;1253;138962;-63
2023/05/29 10:38:13;;;;;;;1.90;1.50;;;;;;;23.51;26.58;99742.60;436618;1253;139032;-64
2023/05/29 10:48:41;;;;;;;3.30;1.30;;;;;;;23.49;27.05;99737.83;436623;1253;138477;-65
2023/05/29 10:58:53;;;;;;;8.70;2.50;;;;;;;23.40;27.18;99729.95;436278;1251;138314;-64
2023/05/29 11:09:02;;;;;;;3.70;1.70;;;;;;;23.15;27.72;99726.77;436478;1251;139380;-63
2023/05/29 11:19:10;;;;;;;3.70;1.60;;;;;;;23.14;27.89;99723.30;435918;1251;140215;-63
2023/05/29 11:29:17;;;;;;;3.10;1.80;;;;;;;23.36;27.62;99718.81;436413;1251;138761;-64
2023/05/29 11:39:23;;;;;;;4.40;2.00;;;;;;;23.78;27.47;99716.97;436071;1253;138409;-63
2023/05/29 11:49:33;;;;;;;5.10;1.10;;;;;;;24.53;27.09;99717.60;436547;1253;139639;-64
2023/05/29 11:59:38;;;;;;;5.30;1.80;;;;;;;24.74;26.78;99710.08;437246;1249;138979;-64
2023/05/29 12:09:44;;;;;;;4.10;1.70;;;;;;;24.52;26.71;99706.12;437028;1253;138822;-64
2023/05/29 12:19:50;;;;;;;4.20;1.40;;;;;;;24.65;26.53;99692.61;436289;1253;139081;-64
2023/05/29 12:30:03;;;;;;;7.60;1.60;;;;;;;24.79;26.37;99686.96;436661;1251;140145;-65
2023/05/29 12:40:19;;;;;;;3.20;1.20;;;;;;;24.60;26.41;99689.58;436744;1251;138397;-64
2023/05/29 12:50:27;;;;;;;3.40;1.70;;;;;;;24.32;26.56;99677.96;437548;1250;138577;-62
2023/05/29 13:00:31;;;;;;;;;;;;;;;24.28;26.60;99670.16;436646;1253;139542;-64
2023/05/29 13:10:37;;;;;;;7.50;1.70;;;;;;;24.00;26.57;99666.33;436413;1253;124730;-64
2023/05/29 13:20:43;;;;;;;4.80;2.30;;;;;;;23.67;26.69;99662.70;436146;1251;139391;-65
2023/05/29 13:30:49;;;;;;;2.70;1.40;;;;;;;23.46;27.25;99656.73;436220;1253;139448;-64
2023/05/29 13:40:54;;;;;;;2.90;1.60;;;;;;;23.64;27.31;99645.35;436801;1251;138905;-66
2023/05/29 13:51:00;;;;;;;9.40;2.30;;;;;;;23.59;27.35;99637.22;436911;1251;139144;-66
2023/05/29 14:01:07;;;;;;;4.40;2.30;;;;;;;23.67;27.26;99626.38;436866;1251;138799;-65
2023/05/29 14:11:13;;;;;;;3.80;2.00;;;;;;;23.66;27.32;99623.93;436528;1251;138955;-66
2023/05/29 14:21:20;;;;;;;2.10;1.50;;;;;;;23.52;27.44;99623.40;436230;1251;138451;-65
2023/05/29 14:31:26;;;;;;;2.50;2.00;;;;;;;23.61;27.35;99618.91;436585;1252;138932;-67
2023/05/29 14:41:33;;;;;;;4.30;2.10;;;;;;;23.58;27.25;99616.77;436660;1253;139502;-65
2023/05/29 14:51:39;;;;;;;5.20;2.60;;;;;;;23.50;27.23;99606.83;436357;1253;138502;-65
2023/05/29 15:01:45;;;;;;;4.30;1.80;;;;;;;23.58;27.21;99603.16;436453;1251;138365;-65
2023/05/29 15:11:51;;;;;;;2.10;1.90;;;;;;;23.62;26.98;99604.33;436438;1250;138815;-65
2023/05/29 15:21:56;;;;;;;5.50;2.30;;;;;;;23.73;27.20;99600.47;436501;1251;138521;-65
2023/05/29 15:32:03;;;;;;;3.60;2.20;;;;;;;23.66;27.48;99595.98;436509;1251;138491;-65
2023/05/29 15:42:12;;;;;;;4.00;1.90;;;;;;;23.34;27.75;99595.12;436910;1251;140037;-65
2023/05/29 15:52:18;;;;;;;6.60;2.30;;;;;;;22.87;28.09;99597.70;436592;1251;139243;-65
2023/05/29 16:02:23;;;;;;;3.90;2.50;;;;;;;22.51;28.58;99603.79;436764;1253;138326;-65
2023/05/29 16:12:30;;;;;;;10.60;1.90;;;;;;;22.38;28.79;99601.05;436377;1251;139288;-65
2023/05/29 16:22:36;;;;;;;4.60;1.90;;;;;;;22.22;28.90;99595.74;436985;1253;140117;-66
2023/05/29 16:32:47;;;;;;;4.10;1.80;;;;;;;22.01;29.41;99597.20;436432;1251;138983;-64
2023/05/29 16:42:53;;;;;;;7.40;1.90;;;;;;;21.85;29.62;99594.89;436517;1251;138870;-64
2023/05/29 16:53:00;;;;;;;2.50;1.70;;;;;;;21.69;29.52;99595.23;436716;1253;138443;-63
2023/05/29 17:03:06;;;;;;;3.80;2.10;;;;;;;21.53;29.96;99600.89;436609;1251;138446;-64
2023/05/29 17:13:12;;;;;;;4.00;1.30;;;;;;;21.49;30.14;99602.90;436436;1253;139560;-65
2023/05/29 17:23:18;;;;;;;4.90;1.90;;;;;;;21.39;30.32;99603.27;436472;1252;138868;-65
2023/05/29 17:33:23;;;;;;;8.30;2.20;;;;;;;21.06;31.67;99608.09;436296;1251;138472;-64
2023/05/29 17:43:29;;;;;;;6.00;2.40;;;;;;;20.66;32.92;99613.02;436164;1253;140349;-65
2023/05/29 17:53:35;;;;;;;7.40;2.40;;;;;;;20.29;34.15;99616.98;436710;1253;139617;-64
2023/05/29 18:03:41;;;;;;;5.40;3.00;;;;;;;19.95;35.34;99624.82;436829;1251;138848;-65
2023/05/29 18:13:47;;;;;;;8.50;2.50;;;;;;;19.65;36.38;99632.43;437021;1253;139905;-64
2023/05/29 18:23:53;;;;;;;6.90;3.10;;;;;;;19.31;37.34;99646.23;436813;1253;138827;-65
2023/05/29 18:33:58;;;;;;;4.70;2.60;;;;;;;18.98;38.34;99655.88;436842;1251;138296;-65
2023/05/29 18:44:04;;;;;;;3.20;2.10;;;;;;;18.67;39.28;99665.91;436860;1253;138288;-65
2023/05/29 18:54:10;;;;;;;6.00;3.50;;;;;;;18.37;40.14;99668.83;436324;1254;139164;-65
2023/05/29 19:04:16;;;;;;;6.60;4.30;;;;;;;18.13;40.98;99671.58;436662;1254;139948;-65
2023/05/29 19:14:22;;;;;;;7.30;3.20;;;;;;;17.97;41.71;99677.86;436391;1254;139704;-65
2023/05/29 19:24:28;;;;;;;5.60;2.70;;;;;;;17.87;42.20;99685.80;436657;1252;139389;-65
2023/05/29 19:34:34;;;;;;;6.30;3.20;;;;;;;17.73;42.77;99690.20;437050;1255;138568;-65
2023/05/29 19:44:40;;;;;;;3.30;2.80;;;;;;;17.59;43.31;99694.62;436931;1255;139421;-65
2023/05/29 19:54:46;;;;;;;4.80;3.00;;;;;;;17.46;43.78;99699.34;436856;1254;140349;-65
2023/05/29 20:04:52;;;;;;;7.50;3.60;;;;;;;17.36;44.40;99703.38;436900;1257;139002;-66
2023/05/29 20:14:58;;;;;;;5.10;3.10;;;;;;;17.35;44.79;99711.96;437070;1256;140574;-64
2023/05/29 20:25:05;;;;;;;6.80;2.60;;;;;;;17.31;45.19;99718.41;436465;1255;138837;-65
2023/05/29 20:35:13;;;;;;;5.90;3.20;;;;;;;17.25;45.31;99721.57;436483;1254;138639;-64
2023/05/29 20:45:19;;;;;;;7.40;2.50;;;;;;;17.18;45.45;99724.45;436307;1254;138868;-65
2023/05/29 20:55:28;;;;;;;6.50;3.30;;;;;;;17.09;45.51;99718.39;436446;1254;139663;-65
2023/05/29 21:05:35;;;;;;;3.80;3.20;;;;;;;16.96;46.08;99718.60;436531;1254;138454;-66
2023/05/29 21:15:41;;;;;;;8.20;4.20;;;;;;;16.80;46.52;99720.67;436720;1253;138985;-67
2023/05/29 21:25:47;;;;;;;9.50;4.00;;;;;;;16.76;46.54;99718.55;436827;1254;140170;-65
2023/05/29 21:35:53;;;;;;;8.00;5.10;;;;;;;16.70;46.73;99718.06;436825;1251;140254;-64
2023/05/29 21:45:58;;;;;;;6.20;3.30;;;;;;;16.58;46.93;99718.88;436273;1255;138979;-64
2023/05/29 21:56:04;;;;;;;8.30;3.50;;;;;;;16.47;47.37;99718.65;436075;1254;138279;-65
2023/05/29 22:06:10;;;;;;;8.20;3.50;;;;;;;16.42;47.69;99725.08;437099;1253;139472;-63
2023/05/29 22:16:17;;;;;;;5.70;3.20;;;;;;;16.37;47.70;99720.73;436829;1251;139217;-63
2023/05/29 22:26:23;;;;;;;5.00;3.70;;;;;;;16.28;48.12;99721.80;436535;1254;139153;-65
2023/05/29 22:36:30;;;;;;;8.90;3.20;;;;;;;16.19;48.27;99723.62;436861;1254;138865;-64
2023/05/29 22:46:37;;;;;;;7.20;3.60;;;;;;;16.06;48.58;99722.33;436846;1251;138438;-66
2023/05/29 22:56:43;;;;;;;5.70;3.10;;;;;;;15.93;48.78;99721.09;436954;1253;139784;-64
2023/05/29 23:06:49;;;;;;;4.80;3.40;;;;;;;15.80;48.69;99706.08;436708;1253;139600;-64
2023/05/29 23:16:56;;;;;;;6.30;2.80;;;;;;;15.64;48.37;99707.17;436785;1251;138312;-64
2023/05/29 23:27:02;;;;;;;6.00;3.20;;;;;;;15.53;47.79;99709.35;437455;1251;140413;-65
2023/05/29 23:37:07;;;;;;;5.90;2.70;;;;;;;15.37;47.30;99712.05;436484;1252;139432;-64
2023/05/29 23:47:13;;;;;;;9.70;2.90;;;;;;;15.22;46.90;99709.95;436414;1251;139064;-64
2023/05/29 23:57:19;;;;;;;7.00;3.70;;;;;;;15.09;46.95;99712.20;436964;1253;138937;-64
